Time,TemperatureF,DewpointF,PressureIn,WindDirection,WindDirectionDegrees,WindSpeedMPH,WindSpeedGustMPH,Humidity,HourlyPrecipIn,Conditions,Clouds,dailyrainin,SoftwareType,DateUTC
2013-09-20 00:01:00,65.2,19.4,30.09,WSW,248,-999.0,-999.0,17,0.00,,BKN060,0.00,VWS V14.01,2013-09-20 04:01:00,
2013-09-20 00:06:00,65.2,17.9,30.09,WSW,248,-999.0,-999.0,16,0.00,,BKN060,0.00,VWS V14.01,2013-09-20 04:06:00,
2013-09-20 00:11:00,65.4,9.6,30.09,WSW,248,-999.0,-999.0,11,0.00,,BKN060,0.00,VWS V14.01,2013-09-20 04:11:00,
2013-09-20 00:16:00,65.2,13.2,30.09,WSW,248,-999.0,-999.0,13,0.00,,BKN060,0.00,VWS V14.01,2013-09-20 04:16:00,
2013-09-20 00:21:00,65.2,13.2,30.09,WSW,248,-999.0,-999.0,13,0.00,,BKN060,0.00,VWS V14.01,2013-09-20 04:21:00,
2013-09-20 00:26:00,65.4,11.5,30.09,WSW,248,-999.0,-999.0,12,0.00,,BKN060,0.00,VWS V14.01,2013-09-20 04:26:00,
2013-09-20 00:31:00,65.4,11.5,30.09,WSW,248,-999.0,-999.0,12,0.00,,BKN060,0.00,VWS V14.01,2013-09-20 04:31:00,
2013-09-20 00:36:00,65.4,11.5,30.09,WSW,248,-999.0,-999.0,12,0.00,,BKN060,0.00,VWS V14.01,2013-09-20 04:36:00,
2013-09-20 00:41:00,65.5,11.6,30.09,WSW,248,-999.0,-999.0,12,0.00,,BKN060,0.00,VWS V14.01,2013-09-20 04:41:00,
2013-09-20 00:46:00,65.7,2.8,30.09,WSW,248,-999.0,-999.0,8,0.00,,BKN060,0.00,VWS V14.01,2013-09-20 04:46:00,
2013-09-20 00:51:00,65.9,-3.1,30.09,WSW,248,-999.0,-999.0,6,0.00,,BKN060,0.00,VWS V14.01,2013-09-20 04:51:00,
2013-09-20 00:56:00,65.9,3.0,30.09,WSW,248,-999.0,-999.0,8,0.00,,BKN060,0.00,VWS V14.01,2013-09-20 04:56:00,
2013-09-20 01:01:00,65.9,11.9,30.08,WSW,248,-999.0,-999.0,12,0.00,,OVC060,0.00,VWS V14.01,2013-09-20 05:01:00,
2013-09-20 01:06:00,65.9,13.7,30.08,WSW,248,-999.0,-999.0,13,0.00,,OVC060,0.00,VWS V14.01,2013-09-20 05:06:00,
2013-09-20 01:11:00,65.9,13.7,30.09,WSW,248,-999.0,-999.0,13,0.00,,OVC060,0.00,VWS V14.01,2013-09-20 05:11:00,
2013-09-20 01:16:00,65.9,11.9,30.09,WSW,248,-999.0,-999.0,12,0.00,,OVC060,0.00,VWS V14.01,2013-09-20 05:16:00,
2013-09-20 01:21:00,65.9,10.0,30.09,WSW,248,-999.0,-999.0,11,0.00,,OVC060,0.00,VWS V14.01,2013-09-20 05:21:00,
2013-09-20 01:26:00,65.9,10.0,30.09,WSW,248,-999.0,-999.0,11,0.00,,OVC060,0.00,VWS V14.01,2013-09-20 05:26:00,
2013-09-20 01:31:00,65.9,7.8,30.09,WSW,248,-999.0,-999.0,10,0.00,,OVC060,0.00,VWS V14.01,2013-09-20 05:31:00,
2013-09-20 01:36:00,65.9,7.8,30.08,WSW,248,-999.0,-999.0,10,0.00,,OVC060,0.00,VWS V14.01,2013-09-20 05:36:00,
2013-09-20 01:41:00,65.9,7.8,30.08,WSW,248,-999.0,-999.0,10,0.00,,OVC060,0.00,VWS V14.01,2013-09-20 05:41:00,
2013-09-20 01:46:00,65.9,3.0,30.08,WSW,248,-999.0,-999.0,8,0.00,,OVC060,0.00,VWS V14.01,2013-09-20 05:46:00,
2013-09-20 01:51:00,65.9,0.1,30.08,WSW,248,-999.0,-999.0,7,0.00,,OVC060,0.00,VWS V14.01,2013-09-20 05:51:00,
2013-09-20 01:56:00,65.9,-3.1,30.08,WSW,248,-999.0,-999.0,6,0.00,,OVC060,0.00,VWS V14.01,2013-09-20 05:56:00,
2013-09-20 02:01:00,65.9,0.1,30.08,WSW,248,-999.0,-999.0,7,0.00,,BKN070,0.00,VWS V14.01,2013-09-20 06:01:00,
2013-09-20 02:06:00,66.1,3.1,30.08,WSW,248,-999.0,-999.0,8,0.00,,BKN070,0.00,VWS V14.01,2013-09-20 06:06:00,
2013-09-20 02:11:00,66.3,3.3,30.07,WSW,248,-999.0,-999.0,8,0.00,,BKN070,0.00,VWS V14.01,2013-09-20 06:11:00,
2013-09-20 02:16:00,66.3,10.3,30.07,WSW,248,-999.0,-999.0,11,0.00,,BKN070,0.00,VWS V14.01,2013-09-20 06:16:00,
2013-09-20 02:21:00,66.3,12.2,30.07,WSW,248,-999.0,-999.0,12,0.00,,BKN070,0.00,VWS V14.01,2013-09-20 06:21:00,
2013-09-20 02:26:00,66.1,12.1,30.07,WSW,248,-999.0,-999.0,12,0.00,,BKN070,0.00,VWS V14.01,2013-09-20 06:26:00,
2013-09-20 02:31:00,66.1,12.1,30.07,WSW,248,-999.0,-999.0,12,0.00,,BKN070,0.00,VWS V14.01,2013-09-20 06:31:00,
2013-09-20 02:36:00,65.9,13.7,30.08,WSW,248,-999.0,-999.0,13,0.00,,BKN070,0.00,VWS V14.01,2013-09-20 06:36:00,
2013-09-20 02:41:00,65.9,13.7,30.08,WSW,248,-999.0,-999.0,13,0.00,,BKN070,0.00,VWS V14.01,2013-09-20 06:41:00,
2013-09-20 02:46:00,65.7,16.9,30.07,WSW,248,-999.0,-999.0,15,0.00,,BKN070,0.00,VWS V14.01,2013-09-20 06:46:00,
2013-09-20 02:51:00,65.5,16.7,30.07,WSW,248,-999.0,-999.0,15,0.00,,BKN070,0.00,VWS V14.01,2013-09-20 06:51:00,
2013-09-20 02:56:00,65.5,16.7,30.08,WSW,248,-999.0,-999.0,15,0.00,,BKN070,0.00,VWS V14.01,2013-09-20 06:56:00,
2013-09-20 03:01:00,65.4,13.3,30.07,WSW,248,-999.0,-999.0,13,0.00,,BKN250,0.00,VWS V14.01,2013-09-20 07:01:00,
2013-09-20 03:06:00,65.2,13.2,30.07,WSW,248,-999.0,-999.0,13,0.00,,BKN250,0.00,VWS V14.01,2013-09-20 07:06:00,
2013-09-20 03:11:00,65.0,13.0,30.07,WSW,248,-999.0,-999.0,13,0.00,,BKN250,0.00,VWS V14.01,2013-09-20 07:11:00,
2013-09-20 03:16:00,65.0,9.3,30.07,WSW,248,-999.0,-999.0,11,0.00,,BKN250,0.00,VWS V14.01,2013-09-20 07:16:00,
2013-09-20 03:21:00,65.0,9.3,30.07,WSW,248,-999.0,-999.0,11,0.00,,BKN250,0.00,VWS V14.01,2013-09-20 07:21:00,
2013-09-20 03:26:00,65.0,7.2,30.07,WSW,248,-999.0,-999.0,10,0.00,,BKN250,0.00,VWS V14.01,2013-09-20 07:26:00,
2013-09-20 03:31:00,65.0,9.3,30.07,WSW,248,-999.0,-999.0,11,0.00,,BKN250,0.00,VWS V14.01,2013-09-20 07:31:00,
2013-09-20 03:36:00,65.0,11.2,30.07,WSW,248,-999.0,-999.0,12,0.00,,BKN250,0.00,VWS V14.01,2013-09-20 07:36:00,
2013-09-20 03:41:00,64.8,9.1,30.07,WSW,248,-999.0,-999.0,11,0.00,,BKN250,0.00,VWS V14.01,2013-09-20 07:41:00,
2013-09-20 03:46:00,64.8,7.0,30.06,WSW,248,-999.0,-999.0,10,0.00,,BKN250,0.00,VWS V14.01,2013-09-20 07:46:00,
2013-09-20 03:51:00,64.7,9.0,30.06,WSW,248,-999.0,-999.0,11,0.00,,BKN250,0.00,VWS V14.01,2013-09-20 07:51:00,
2013-09-20 03:56:00,64.6,6.8,30.06,WSW,248,-999.0,-999.0,10,0.00,,BKN250,0.00,VWS V14.01,2013-09-20 07:56:00,
2013-09-20 04:01:00,64.6,8.9,30.06,WSW,248,-999.0,-999.0,11,0.00,,SCT180,0.00,VWS V14.01,2013-09-20 08:01:00,
2013-09-20 04:06:00,64.6,1.9,30.06,WSW,248,-999.0,-999.0,8,0.00,,SCT180,0.00,VWS V14.01,2013-09-20 08:06:00,
2013-09-20 04:11:00,64.3,6.6,30.05,WSW,248,-999.0,-999.0,10,0.00,,SCT180,0.00,VWS V14.01,2013-09-20 08:11:00,
2013-09-20 04:16:00,64.2,6.5,30.06,WSW,248,-999.0,-999.0,10,0.00,,SCT180,0.00,VWS V14.01,2013-09-20 08:16:00,
2013-09-20 04:21:00,64.2,1.6,30.06,WSW,248,-999.0,-999.0,8,0.00,,SCT180,0.00,VWS V14.01,2013-09-20 08:21:00,
2013-09-20 04:26:00,64.0,1.5,30.05,WSW,248,-999.0,-999.0,8,0.00,,SCT180,0.00,VWS V14.01,2013-09-20 08:26:00,
2013-09-20 04:31:00,64.0,-4.6,30.05,WSW,248,-999.0,-999.0,6,0.00,,SCT180,0.00,VWS V14.01,2013-09-20 08:31:00,
2013-09-20 04:36:00,64.0,-4.6,30.06,WSW,248,-999.0,-999.0,6,0.00,,SCT180,0.00,VWS V14.01,2013-09-20 08:36:00,
2013-09-20 04:41:00,64.0,-4.6,30.05,WSW,248,-999.0,-999.0,6,0.00,,SCT180,0.00,VWS V14.01,2013-09-20 08:41:00,
2013-09-20 04:46:00,63.8,-1.5,30.06,WSW,248,-999.0,-999.0,7,0.00,,SCT180,0.00,VWS V14.01,2013-09-20 08:46:00,
2013-09-20 04:51:00,63.8,-1.5,30.06,WSW,248,-999.0,-999.0,7,0.00,,SCT180,0.00,VWS V14.01,2013-09-20 08:51:00,
2013-09-20 04:56:00,63.7,-1.6,30.05,WSW,248,-999.0,-999.0,7,0.00,,SCT180,0.00,VWS V14.01,2013-09-20 08:56:00,
2013-09-20 05:00:00,63.5,-1.7,30.06,WSW,248,-999.0,-999.0,7,0.00,,SCT200,0.00,VWS V14.01,2013-09-20 09:00:00,
2013-09-20 05:05:00,63.3,-5.1,30.06,WSW,248,-999.0,-999.0,6,0.00,,SCT200,0.00,VWS V14.01,2013-09-20 09:05:00,
2013-09-20 05:10:00,63.1,-5.2,30.06,WSW,248,-999.0,-999.0,6,0.00,,SCT200,0.00,VWS V14.01,2013-09-20 09:10:00,
2013-09-20 05:15:00,63.1,-9.0,30.06,WSW,248,-999.0,-999.0,5,0.00,,SCT200,0.00,VWS V14.01,2013-09-20 09:15:00,
2013-09-20 05:20:00,62.9,-9.1,30.05,WSW,248,-999.0,-999.0,5,0.00,,SCT200,0.00,VWS V14.01,2013-09-20 09:20:00,
2013-09-20 05:25:00,62.9,-26.9,30.05,WSW,248,-999.0,-999.0,2,0.00,,SCT200,0.00,VWS V14.01,2013-09-20 09:25:00,
2013-09-20 05:30:00,62.8,-26.9,30.05,WSW,248,-999.0,-999.0,2,0.00,,SCT200,0.00,VWS V14.01,2013-09-20 09:30:00,
2013-09-20 05:35:00,62.8,-26.9,30.05,WSW,248,-999.0,-999.0,2,0.00,,SCT200,0.00,VWS V14.01,2013-09-20 09:35:00,
2013-09-20 05:40:00,62.8,-26.9,30.06,WSW,248,-999.0,-999.0,2,0.00,,SCT200,0.00,VWS V14.01,2013-09-20 09:40:00,
2013-09-20 05:45:00,62.8,-39.3,30.06,WSW,248,-999.0,-999.0,1,0.00,,SCT200,0.00,VWS V14.01,2013-09-20 09:45:00,
2013-09-20 05:50:00,62.8,-39.3,30.06,WSW,248,-999.0,-999.0,1,0.00,,SCT200,0.00,VWS V14.01,2013-09-20 09:50:00,
2013-09-20 05:55:00,62.8,-39.3,30.06,WSW,248,-999.0,-999.0,1,0.00,,SCT200,0.00,VWS V14.01,2013-09-20 09:55:00,
2013-09-20 06:00:00,62.8,-39.3,30.06,WSW,248,-999.0,-999.0,1,0.00,,FEW180,0.00,VWS V14.01,2013-09-20 10:00:00,
2013-09-20 06:05:00,62.8,-26.9,30.06,WSW,248,-999.0,-999.0,2,0.00,,FEW180,0.00,VWS V14.01,2013-09-20 10:05:00,
2013-09-20 06:10:00,62.4,-27.2,30.06,WSW,248,-999.0,-999.0,2,0.00,,FEW180,0.00,VWS V14.01,2013-09-20 10:10:00,
2013-09-20 06:15:00,62.4,-27.2,30.06,WSW,248,-999.0,-999.0,2,0.00,,FEW180,0.00,VWS V14.01,2013-09-20 10:15:00,
2013-09-20 06:20:00,62.2,-39.7,30.05,WSW,248,-999.0,-999.0,1,0.00,,FEW180,0.00,VWS V14.01,2013-09-20 10:20:00,
2013-09-20 06:25:00,62.2,-39.7,30.05,WSW,248,-999.0,-999.0,1,0.00,,FEW180,0.00,VWS V14.01,2013-09-20 10:25:00,
2013-09-20 06:30:00,62.0,-39.8,30.05,WSW,248,-999.0,-999.0,1,0.00,,FEW180,0.00,VWS V14.01,2013-09-20 10:30:00,
2013-09-20 06:35:00,62.0,-39.8,30.05,WSW,248,-999.0,-999.0,1,0.00,,FEW180,0.00,VWS V14.01,2013-09-20 10:35:00,
2013-09-20 06:40:00,62.0,-39.8,30.06,WSW,248,-999.0,-999.0,1,0.00,,FEW180,0.00,VWS V14.01,2013-09-20 10:40:00,
2013-09-20 06:45:00,62.0,-39.8,30.06,WSW,248,-999.0,-999.0,1,0.00,,FEW180,0.00,VWS V14.01,2013-09-20 10:45:00,
2013-09-20 06:50:00,62.0,-39.8,30.06,WSW,248,-999.0,-999.0,1,0.00,,FEW180,0.00,VWS V14.01,2013-09-20 10:50:00,
2013-09-20 06:55:00,62.0,-39.8,30.06,WSW,248,-999.0,-999.0,1,0.00,,FEW180,0.00,VWS V14.01,2013-09-20 10:55:00,
2013-09-20 07:00:00,62.0,-39.8,30.06,WSW,248,-999.0,-999.0,1,0.00,,SCT180,0.00,VWS V14.01,2013-09-20 11:00:00,
2013-09-20 07:05:00,62.0,-39.8,30.06,WSW,248,-999.0,-999.0,1,0.00,,SCT180,0.00,VWS V14.01,2013-09-20 11:05:00,
2013-09-20 07:10:00,62.4,-39.6,30.06,WSW,248,-999.0,-999.0,1,0.00,,SCT180,0.00,VWS V14.01,2013-09-20 11:10:00,
2013-09-20 07:15:00,62.4,-39.6,30.06,WSW,248,-999.0,-999.0,1,0.00,,SCT180,0.00,VWS V14.01,2013-09-20 11:15:00,
2013-09-20 07:20:00,62.4,-39.6,30.06,WSW,248,-999.0,-999.0,1,0.00,,SCT180,0.00,VWS V14.01,2013-09-20 11:20:00,
2013-09-20 07:25:00,62.4,-39.6,30.06,WSW,248,-999.0,-999.0,1,0.00,,SCT180,0.00,VWS V14.01,2013-09-20 11:25:00,
2013-09-20 07:30:00,62.6,-39.5,30.06,WSW,248,-999.0,-999.0,1,0.00,,SCT180,0.00,VWS V14.01,2013-09-20 11:30:00,
2013-09-20 07:35:00,62.8,-39.3,30.06,WSW,248,-999.0,-999.0,1,0.00,,SCT180,0.00,VWS V14.01,2013-09-20 11:35:00,
2013-09-20 07:40:00,62.9,-39.3,30.06,WSW,248,-999.0,-999.0,1,0.00,,SCT180,0.00,VWS V14.01,2013-09-20 11:40:00,
2013-09-20 07:45:00,63.1,-39.2,30.06,WSW,248,-999.0,-999.0,1,0.00,,SCT180,0.00,VWS V14.01,2013-09-20 11:45:00,
2013-09-20 07:50:00,63.3,-39.0,30.06,WSW,248,-999.0,-999.0,1,0.00,,SCT180,0.00,VWS V14.01,2013-09-20 11:50:00,
2013-09-20 07:55:00,63.5,-38.9,30.06,WSW,248,-999.0,-999.0,1,0.00,,SCT180,0.00,VWS V14.01,2013-09-20 11:55:00,
2013-09-20 08:00:00,63.8,-38.7,30.06,WSW,248,-999.0,-999.0,1,0.00,,BKN120,0.00,VWS V14.01,2013-09-20 12:00:00,
2013-09-20 08:05:00,63.8,-38.7,30.06,WSW,248,-999.0,-999.0,1,0.00,,BKN120,0.00,VWS V14.01,2013-09-20 12:05:00,
2013-09-20 08:10:00,64.2,-38.5,30.06,WSW,248,-999.0,-999.0,1,0.00,,BKN120,0.00,VWS V14.01,2013-09-20 12:10:00,
2013-09-20 08:15:00,64.6,-38.2,30.06,WSW,248,-999.0,-999.0,1,0.00,,BKN120,0.00,VWS V14.01,2013-09-20 12:15:00,
2013-09-20 08:20:00,64.8,-38.1,30.06,WSW,248,-999.0,-999.0,1,0.00,,BKN120,0.00,VWS V14.01,2013-09-20 12:20:00,
2013-09-20 08:25:00,65.5,-37.7,30.06,WSW,248,-999.0,-999.0,1,0.00,,BKN120,0.00,VWS V14.01,2013-09-20 12:25:00,
2013-09-20 08:30:00,65.9,-37.4,30.06,WSW,248,-999.0,-999.0,1,0.00,,BKN120,0.00,VWS V14.01,2013-09-20 12:30:00,
2013-09-20 08:35:00,66.3,-37.2,30.06,WSW,248,-999.0,-999.0,1,0.00,,BKN120,0.00,VWS V14.01,2013-09-20 12:35:00,
2013-09-20 08:40:00,66.4,-37.1,30.06,WSW,248,-999.0,-999.0,1,0.00,,BKN120,0.00,VWS V14.01,2013-09-20 12:40:00,
2013-09-20 08:45:00,66.6,-37.0,30.06,WSW,248,-999.0,-999.0,1,0.00,,BKN120,0.00,VWS V14.01,2013-09-20 12:45:00,
2013-09-20 08:50:00,67.0,-16.4,30.06,WSW,248,-999.0,-999.0,3,0.00,,BKN120,0.00,VWS V14.01,2013-09-20 12:50:00,
2013-09-20 08:55:00,67.0,-6.1,30.06,WSW,248,-999.0,-999.0,5,0.00,,BKN120,0.00,VWS V14.01,2013-09-20 12:55:00,
2013-09-20 09:00:00,67.3,-2.1,30.06,WSW,248,-999.0,-999.0,6,0.00,,OVC140,0.00,VWS V14.01,2013-09-20 13:00:00,
2013-09-20 09:05:00,67.7,4.3,30.06,WSW,248,-999.0,-999.0,8,0.00,,OVC140,0.00,VWS V14.01,2013-09-20 13:05:00,
2013-09-20 09:10:00,68.1,11.6,30.06,WSW,248,-999.0,-999.0,11,0.00,,OVC140,0.00,VWS V14.01,2013-09-20 13:10:00,
2013-09-20 09:15:00,68.1,13.6,30.06,WSW,248,-999.0,-999.0,12,0.00,,OVC140,0.00,VWS V14.01,2013-09-20 13:15:00,
2013-09-20 09:20:00,68.4,19.0,30.06,WSW,248,-999.0,-999.0,15,0.00,,OVC140,0.00,VWS V14.01,2013-09-20 13:20:00,
2013-09-20 09:25:00,68.8,19.3,30.06,WSW,248,-999.0,-999.0,15,0.00,,OVC140,0.00,VWS V14.01,2013-09-20 13:25:00,
2013-09-20 09:30:00,69.1,21.1,30.06,WSW,248,-999.0,-999.0,16,0.00,,OVC140,0.00,VWS V14.01,2013-09-20 13:30:00,
2013-09-20 09:35:00,69.5,24.2,30.06,WSW,248,-999.0,-999.0,18,0.00,,OVC140,0.00,VWS V14.01,2013-09-20 13:35:00,
2013-09-20 09:40:00,69.7,28.0,30.06,WSW,248,-999.0,-999.0,21,0.00,,OVC140,0.00,VWS V14.01,2013-09-20 13:40:00,
2013-09-20 09:45:00,70.0,28.3,30.06,WSW,248,-999.0,-999.0,21,0.00,,OVC140,0.00,VWS V14.01,2013-09-20 13:45:00,
2013-09-20 09:50:00,70.4,30.9,30.06,WSW,248,-999.0,-999.0,23,0.00,,OVC140,0.00,VWS V14.01,2013-09-20 13:50:00,
2013-09-20 09:55:00,70.6,33.1,30.06,WSW,248,-999.0,-999.0,25,0.00,,OVC140,0.00,VWS V14.01,2013-09-20 13:55:00,
2013-09-20 10:00:00,70.6,33.1,30.06,WSW,248,-999.0,-999.0,25,0.00,,OVC100,0.00,VWS V14.01,2013-09-20 14:00:00,
2013-09-20 10:05:00,70.8,34.2,30.06,WSW,248,-999.0,-999.0,26,0.00,,OVC100,0.00,VWS V14.01,2013-09-20 14:05:00,
2013-09-20 10:10:00,70.9,34.3,30.06,WSW,248,-999.0,-999.0,26,0.00,,OVC100,0.00,VWS V14.01,2013-09-20 14:10:00,
2013-09-20 10:15:00,70.9,34.3,30.06,WSW,248,-999.0,-999.0,26,0.00,,OVC100,0.00,VWS V14.01,2013-09-20 14:15:00,
2013-09-20 10:20:00,71.3,36.5,30.06,WSW,248,-999.0,-999.0,28,0.00,,OVC100,0.00,VWS V14.01,2013-09-20 14:20:00,
2013-09-20 10:25:00,71.3,39.1,30.06,WSW,248,-999.0,-999.0,31,0.00,,OVC100,0.00,VWS V14.01,2013-09-20 14:25:00,
2013-09-20 10:30:00,71.3,38.3,30.06,WSW,248,-999.0,-999.0,30,0.00,,OVC100,0.00,VWS V14.01,2013-09-20 14:30:00,
2013-09-20 10:35:00,71.5,37.6,30.07,WSW,248,-999.0,-999.0,29,0.00,,OVC100,0.00,VWS V14.01,2013-09-20 14:35:00,
2013-09-20 10:40:00,71.7,37.8,30.06,WSW,248,-999.0,-999.0,29,0.00,,OVC100,0.00,VWS V14.01,2013-09-20 14:40:00,
2013-09-20 10:45:00,71.8,38.7,30.06,SW,225,-999.0,-999.0,30,0.00,,OVC100,0.00,VWS V14.01,2013-09-20 14:45:00,
2013-09-20 10:50:00,72.0,38.9,30.06,SW,225,-999.0,-999.0,30,0.00,,OVC100,0.00,VWS V14.01,2013-09-20 14:50:00,
2013-09-20 10:55:00,72.2,39.0,30.06,SW,225,-999.0,-999.0,30,0.00,,OVC100,0.00,VWS V14.01,2013-09-20 14:55:00,
2013-09-20 11:00:00,72.4,39.2,30.06,SW,225,-999.0,-999.0,30,0.00,,OVC100,0.00,VWS V14.01,2013-09-20 15:00:00,
2013-09-20 11:05:00,73.1,40.7,30.05,SW,225,-999.0,-999.0,31,0.00,,OVC100,0.00,VWS V14.01,2013-09-20 15:05:00,
2013-09-20 11:10:00,73.6,41.9,30.05,SW,225,-999.0,-999.0,32,0.00,,OVC100,0.00,VWS V14.01,2013-09-20 15:10:00,
2013-09-20 11:15:00,74.2,45.5,30.05,SW,225,-999.0,-999.0,36,0.00,,OVC100,0.00,VWS V14.01,2013-09-20 15:15:00,
2013-09-20 11:20:00,74.3,45.7,30.05,SW,225,-999.0,-999.0,36,0.00,,OVC100,0.00,VWS V14.01,2013-09-20 15:20:00,
2013-09-20 11:25:00,74.3,46.4,30.05,SW,225,-999.0,-999.0,37,0.00,,OVC100,0.00,VWS V14.01,2013-09-20 15:25:00,
2013-09-20 11:30:00,74.4,46.5,30.05,SW,225,-999.0,-999.0,37,0.00,,OVC100,0.00,VWS V14.01,2013-09-20 15:30:00,
2013-09-20 11:35:00,74.8,46.1,30.04,SW,225,-999.0,-999.0,36,0.00,,OVC100,0.00,VWS V14.01,2013-09-20 15:35:00,
2013-09-20 11:40:00,75.3,48.0,30.04,SW,225,-999.0,-999.0,38,0.00,,OVC100,0.00,VWS V14.01,2013-09-20 15:40:00,
2013-09-20 11:45:00,75.5,48.9,30.04,SW,225,-999.0,-999.0,39,0.00,,OVC100,0.00,VWS V14.01,2013-09-20 15:45:00,
2013-09-20 11:50:00,75.9,49.2,30.04,SW,225,-999.0,-999.0,39,0.00,,OVC100,0.00,VWS V14.01,2013-09-20 15:50:00,
2013-09-20 11:55:00,76.1,49.4,30.04,SW,225,-999.0,-999.0,39,0.00,,OVC100,0.00,VWS V14.01,2013-09-20 15:55:00,
2013-09-20 12:00:00,76.4,51.7,30.04,SW,225,-999.0,-999.0,42,0.00,,OVC140,0.00,VWS V14.01,2013-09-20 16:00:00,
2013-09-20 12:05:00,76.6,51.2,30.04,SW,225,-999.0,-999.0,41,0.00,,OVC140,0.00,VWS V14.01,2013-09-20 16:05:00,
2013-09-20 12:10:00,76.8,52.0,30.04,SW,225,-999.0,-999.0,42,0.00,,OVC140,0.00,VWS V14.01,2013-09-20 16:10:00,
2013-09-20 12:15:00,76.8,52.7,30.04,SW,225,-999.0,-999.0,43,0.00,,OVC140,0.00,VWS V14.01,2013-09-20 16:15:00,
2013-09-20 12:20:00,76.8,52.0,30.04,NW,315,-999.0,-999.0,42,0.00,,OVC140,0.00,VWS V14.01,2013-09-20 16:20:00,
2013-09-20 12:25:00,77.0,52.2,30.04,WSW,248,-999.0,-999.0,42,0.00,,OVC140,0.00,VWS V14.01,2013-09-20 16:25:00,
2013-09-20 12:30:00,77.3,52.5,30.03,SSW,202,-999.0,-999.0,42,0.00,,OVC140,0.00,VWS V14.01,2013-09-20 16:30:00,
2013-09-20 12:35:00,77.9,53.0,30.03,SSW,202,-999.0,-999.0,42,0.00,,OVC140,0.00,VWS V14.01,2013-09-20 16:35:00,
2013-09-20 12:40:00,78.0,54.4,30.03,SE,135,-999.0,-999.0,44,0.00,,OVC140,0.00,VWS V14.01,2013-09-20 16:40:00,
2013-09-20 12:45:00,78.2,54.5,30.03,SW,225,-999.0,-999.0,44,0.00,,OVC140,0.00,VWS V14.01,2013-09-20 16:45:00,
2013-09-20 12:50:00,78.6,55.5,30.03,ESE,112,-999.0,-999.0,45,0.00,,OVC140,0.00,VWS V14.01,2013-09-20 16:50:00,
2013-09-20 12:55:00,78.6,55.5,30.03,WNW,292,-999.0,-999.0,45,0.00,,OVC140,0.00,VWS V14.01,2013-09-20 16:55:00,
2013-09-20 13:00:00,78.8,58.6,30.02,SE,135,-999.0,-999.0,50,0.00,,BKN095,0.00,VWS V14.01,2013-09-20 17:00:00,
2013-09-20 13:05:00,78.9,57.0,30.02,SSW,202,-999.0,-999.0,47,0.00,,BKN095,0.00,VWS V14.01,2013-09-20 17:05:00,
2013-09-20 13:10:00,79.5,59.2,30.02,SW,225,-999.0,-999.0,50,0.00,,BKN095,0.00,VWS V14.01,2013-09-20 17:10:00,
2013-09-20 13:15:00,80.4,58.3,30.01,NW,315,-999.0,-999.0,47,0.00,,BKN095,0.00,VWS V14.01,2013-09-20 17:15:00,
2013-09-20 13:20:00,80.4,61.2,30.01,SSW,202,-999.0,-999.0,52,0.00,,BKN095,0.00,VWS V14.01,2013-09-20 17:20:00,
2013-09-20 13:25:00,80.9,60.5,30.01,WSW,248,-999.0,-999.0,50,0.00,,BKN095,0.00,VWS V14.01,2013-09-20 17:25:00,
2013-09-20 13:30:00,81.3,62.0,30.00,West,270,-999.0,-999.0,52,0.00,,BKN095,0.00,VWS V14.01,2013-09-20 17:30:00,
2013-09-20 13:35:00,81.6,63.3,30.00,ENE,68,-999.0,-999.0,54,0.00,,BKN095,0.00,VWS V14.01,2013-09-20 17:35:00,
2013-09-20 13:40:00,81.5,63.2,30.00,SSE,158,-999.0,-999.0,54,0.00,,BKN095,0.00,VWS V14.01,2013-09-20 17:40:00,
2013-09-20 13:45:00,81.6,63.9,29.99,WNW,292,-999.0,-999.0,55,0.00,,BKN095,0.00,VWS V14.01,2013-09-20 17:45:00,
2013-09-20 13:50:00,81.8,64.1,29.99,SSW,202,-999.0,-999.0,55,0.00,,BKN095,0.00,VWS V14.01,2013-09-20 17:50:00,
2013-09-20 13:55:00,81.8,64.1,29.99,SSW,202,-999.0,-999.0,55,0.00,,BKN095,0.00,VWS V14.01,2013-09-20 17:55:00,
2013-09-20 14:00:00,81.8,64.1,29.99,South,180,-999.0,-999.0,55,0.00,,CLR,0.00,VWS V14.01,2013-09-20 18:00:00,
2013-09-20 14:05:00,82.0,63.7,29.99,SW,225,-999.0,-999.0,54,0.00,,CLR,0.00,VWS V14.01,2013-09-20 18:05:00,
2013-09-20 14:10:00,82.2,64.4,29.99,ESE,112,-999.0,-999.0,55,0.00,,CLR,0.00,VWS V14.01,2013-09-20 18:10:00,
2013-09-20 14:15:00,82.4,64.6,29.99,SSE,158,-999.0,-999.0,55,0.00,,CLR,0.00,VWS V14.01,2013-09-20 18:15:00,
2013-09-20 14:20:00,82.7,64.3,29.98,SSW,202,-999.0,-999.0,54,0.00,,CLR,0.00,VWS V14.01,2013-09-20 18:20:00,
2013-09-20 14:25:00,83.4,65.5,29.98,WSW,248,-999.0,-999.0,55,0.00,,CLR,0.00,VWS V14.01,2013-09-20 18:25:00,
2013-09-20 14:30:00,83.8,65.9,29.98,SW,225,-999.0,-999.0,55,0.00,,CLR,0.00,VWS V14.01,2013-09-20 18:30:00,
2013-09-20 14:35:00,83.9,66.1,29.98,NW,315,-999.0,-999.0,55,0.00,,CLR,0.00,VWS V14.01,2013-09-20 18:35:00,
2013-09-20 14:40:00,83.9,66.1,29.97,SE,135,-999.0,-999.0,55,0.00,,CLR,0.00,VWS V14.01,2013-09-20 18:40:00,
2013-09-20 14:45:00,83.8,65.9,29.97,SE,135,-999.0,-999.0,55,0.00,,CLR,0.00,VWS V14.01,2013-09-20 18:45:00,
2013-09-20 14:50:00,83.8,65.4,29.97,NNW,338,-999.0,-999.0,54,0.00,,CLR,0.00,VWS V14.01,2013-09-20 18:50:00,
2013-09-20 14:55:00,84.2,66.2,29.97,NE,45,-999.0,-999.0,55,0.00,,CLR,0.00,VWS V14.01,2013-09-20 18:55:00,
2013-09-20 15:00:00,83.9,66.1,29.96,NE,45,-999.0,-999.0,55,0.00,,SCT250,0.00,VWS V14.01,2013-09-20 19:00:00,
2013-09-20 15:05:00,84.7,66.2,29.96,NNE,22,-999.0,-999.0,54,0.00,,SCT250,0.00,VWS V14.01,2013-09-20 19:05:00,
2013-09-20 15:10:00,84.7,65.6,29.96,ESE,112,-999.0,-999.0,53,0.00,,SCT250,0.00,VWS V14.01,2013-09-20 19:10:00,
2013-09-20 15:11:00,84.4,65.5,29.96,East,90,-999.0,-999.0,53,0.00,,SCT250,0.00,VWS V14.01,2013-09-20 19:11:00,
2013-09-20 15:16:00,84.2,65.7,29.96,WSW,248,-999.0,-999.0,54,0.00,,SCT250,0.00,VWS V14.01,2013-09-20 19:16:00,
2013-09-20 15:21:00,84.2,66.2,29.95,NW,315,-999.0,-999.0,55,0.00,,SCT250,0.00,VWS V14.01,2013-09-20 19:21:00,
2013-09-20 15:26:00,84.2,66.2,29.95,SW,225,-999.0,-999.0,55,0.00,,SCT250,0.00,VWS V14.01,2013-09-20 19:26:00,
2013-09-20 15:31:00,84.2,66.2,29.95,SW,225,-999.0,-999.0,55,0.00,,SCT250,0.00,VWS V14.01,2013-09-20 19:31:00,
2013-09-20 15:36:00,84.2,65.8,29.95,SW,225,-999.0,-999.0,54,0.00,,SCT250,0.00,VWS V14.01,2013-09-20 19:36:00,
2013-09-20 15:41:00,84.8,66.4,29.95,South,180,-999.0,-999.0,54,0.00,,SCT250,0.00,VWS V14.01,2013-09-20 19:41:00,
2013-09-20 15:46:00,85.3,65.7,29.95,SSW,202,-999.0,-999.0,52,0.00,,SCT250,0.00,VWS V14.01,2013-09-20 19:46:00,
2013-09-20 15:51:00,85.1,66.1,29.95,SSW,202,-999.0,-999.0,53,0.00,,SCT250,0.00,VWS V14.01,2013-09-20 19:51:00,
2013-09-20 15:56:00,85.5,65.9,29.95,SE,135,-999.0,-999.0,52,0.00,,SCT250,0.00,VWS V14.01,2013-09-20 19:56:00,
2013-09-20 16:01:00,85.9,66.3,29.94,North,0,-999.0,-999.0,52,0.00,,BKN250,0.00,VWS V14.01,2013-09-20 20:01:00,
2013-09-20 16:06:00,86.2,66.6,29.94,SW,225,-999.0,-999.0,52,0.00,,BKN250,0.00,VWS V14.01,2013-09-20 20:06:00,
2013-09-20 16:11:00,86.6,66.4,29.94,NW,315,-999.0,-999.0,51,0.00,,BKN250,0.00,VWS V14.01,2013-09-20 20:11:00,
2013-09-20 16:16:00,86.2,66.6,29.94,SW,225,-999.0,-999.0,52,0.00,,BKN250,0.00,VWS V14.01,2013-09-20 20:16:00,
2013-09-20 16:21:00,86.0,66.9,29.94,NW,315,-999.0,-999.0,53,0.00,,BKN250,0.00,VWS V14.01,2013-09-20 20:21:00,
2013-09-20 16:26:00,86.0,66.4,29.94,SW,225,-999.0,-999.0,52,0.00,,BKN250,0.00,VWS V14.01,2013-09-20 20:26:00,
2013-09-20 16:31:00,85.7,66.7,29.93,SSW,202,-999.0,-999.0,53,0.00,,BKN250,0.00,VWS V14.01,2013-09-20 20:31:00,
2013-09-20 16:36:00,85.9,66.8,29.94,SW,225,-999.0,-999.0,53,0.00,,BKN250,0.00,VWS V14.01,2013-09-20 20:36:00,
2013-09-20 16:41:00,86.0,66.9,29.94,SSE,158,-999.0,-999.0,53,0.00,,BKN250,0.00,VWS V14.01,2013-09-20 20:41:00,
2013-09-20 16:46:00,85.7,66.1,29.94,SE,135,-999.0,-999.0,52,0.00,,BKN250,0.00,VWS V14.01,2013-09-20 20:46:00,
2013-09-20 16:51:00,85.1,66.1,29.94,SSE,158,-999.0,-999.0,53,0.00,,BKN250,0.00,VWS V14.01,2013-09-20 20:51:00,
2013-09-20 16:56:00,85.0,66.0,29.93,SW,225,-999.0,-999.0,53,0.00,,BKN250,0.00,VWS V14.01,2013-09-20 20:56:00,
2013-09-20 17:01:00,85.0,66.0,29.93,SSW,202,-999.0,-999.0,53,0.00,,BKN250,0.00,VWS V14.01,2013-09-20 21:01:00,
2013-09-20 17:06:00,84.7,66.2,29.93,SE,135,-999.0,-999.0,54,0.00,,BKN250,0.00,VWS V14.01,2013-09-20 21:06:00,
2013-09-20 17:11:00,84.7,66.2,29.93,South,180,-999.0,-999.0,54,0.00,,BKN250,0.00,VWS V14.01,2013-09-20 21:11:00,
2013-09-20 17:16:00,84.4,66.0,29.93,South,180,-999.0,-999.0,54,0.00,,BKN250,0.00,VWS V14.01,2013-09-20 21:16:00,
2013-09-20 17:21:00,84.7,66.2,29.92,SW,225,-999.0,-999.0,54,0.00,,BKN250,0.00,VWS V14.01,2013-09-20 21:21:00,
2013-09-20 17:26:00,84.8,66.4,29.92,SE,135,-999.0,-999.0,54,0.00,,BKN250,0.00,VWS V14.01,2013-09-20 21:26:00,
2013-09-20 17:31:00,84.8,66.4,29.92,SE,135,-999.0,-999.0,54,0.00,,BKN250,0.00,VWS V14.01,2013-09-20 21:31:00,
2013-09-20 17:36:00,84.4,66.0,29.91,SE,135,-999.0,-999.0,54,0.00,,BKN250,0.00,VWS V14.01,2013-09-20 21:36:00,
2013-09-20 17:41:00,84.2,65.7,29.92,SSE,158,-999.0,-999.0,54,0.00,,BKN250,0.00,VWS V14.01,2013-09-20 21:41:00,
2013-09-20 17:46:00,84.2,66.2,29.92,SSE,158,-999.0,-999.0,55,0.00,,BKN250,0.00,VWS V14.01,2013-09-20 21:46:00,
2013-09-20 17:51:00,84.2,66.3,29.92,SW,225,-999.0,-999.0,55,0.00,,BKN250,0.00,VWS V14.01,2013-09-20 21:51:00,
2013-09-20 17:56:00,84.2,66.2,29.92,SE,135,-999.0,-999.0,55,0.00,,BKN250,0.00,VWS V14.01,2013-09-20 21:56:00,
2013-09-20 18:01:00,83.8,65.9,29.92,SSE,158,-999.0,-999.0,55,0.00,,SCT250,0.00,VWS V14.01,2013-09-20 22:01:00,
2013-09-20 18:06:00,83.4,65.5,29.92,SSW,202,-999.0,-999.0,55,0.00,,SCT250,0.00,VWS V14.01,2013-09-20 22:06:00,
2013-09-20 18:11:00,83.1,64.7,29.92,SE,135,-999.0,-999.0,54,0.00,,SCT250,0.00,VWS V14.01,2013-09-20 22:11:00,
2013-09-20 18:16:00,82.5,64.2,29.92,SW,225,-999.0,-999.0,54,0.00,,SCT250,0.00,VWS V14.01,2013-09-20 22:16:00,
2013-09-20 18:21:00,82.4,64.1,29.92,SSW,202,-999.0,-999.0,54,0.00,,SCT250,0.00,VWS V14.01,2013-09-20 22:21:00,
2013-09-20 18:26:00,82.4,64.6,29.92,SW,225,-999.0,-999.0,55,0.00,,SCT250,0.00,VWS V14.01,2013-09-20 22:26:00,
2013-09-20 18:31:00,82.2,64.4,29.92,SW,225,-999.0,-999.0,55,0.00,,SCT250,0.00,VWS V14.01,2013-09-20 22:31:00,
2013-09-20 18:36:00,81.8,64.1,29.93,SW,225,-999.0,-999.0,55,0.00,,SCT250,0.00,VWS V14.01,2013-09-20 22:36:00,
2013-09-20 18:41:00,81.5,63.8,29.93,SW,225,-999.0,-999.0,55,0.00,,SCT250,0.00,VWS V14.01,2013-09-20 22:41:00,
2013-09-20 18:46:00,81.3,63.6,29.93,SW,225,-999.0,-999.0,55,0.00,,SCT250,0.00,VWS V14.01,2013-09-20 22:46:00,
2013-09-20 18:51:00,80.9,62.7,29.93,SW,225,-999.0,-999.0,54,0.00,,SCT250,0.00,VWS V14.01,2013-09-20 22:51:00,
2013-09-20 18:56:00,80.4,62.2,29.93,SW,225,-999.0,-999.0,54,0.00,,SCT250,0.00,VWS V14.01,2013-09-20 22:56:00,
2013-09-20 19:01:00,79.8,61.2,29.93,SW,225,-999.0,-999.0,53,0.00,,SCT250,0.00,VWS V14.01,2013-09-20 23:01:00,
2013-09-20 19:06:00,79.3,60.7,29.93,SW,225,-999.0,-999.0,53,0.00,,SCT250,0.00,VWS V14.01,2013-09-20 23:06:00,
2013-09-20 19:11:00,78.8,59.7,29.93,SW,225,-999.0,-999.0,52,0.00,,SCT250,0.00,VWS V14.01,2013-09-20 23:11:00,
2013-09-20 19:16:00,78.2,58.6,29.93,SW,225,-999.0,-999.0,51,0.00,,SCT250,0.00,VWS V14.01,2013-09-20 23:16:00,
2013-09-20 19:21:00,77.9,57.8,29.93,SW,225,-999.0,-999.0,50,0.00,,SCT250,0.00,VWS V14.01,2013-09-20 23:21:00,
2013-09-20 19:26:00,77.3,57.2,29.94,SW,225,-999.0,-999.0,50,0.00,,SCT250,0.00,VWS V14.01,2013-09-20 23:26:00,
2013-09-20 19:31:00,77.0,55.8,29.93,SW,225,-999.0,-999.0,48,0.00,,SCT250,0.00,VWS V14.01,2013-09-20 23:31:00,
2013-09-20 19:36:00,76.6,54.9,29.93,SW,225,-999.0,-999.0,47,0.00,,SCT250,0.00,VWS V14.01,2013-09-20 23:36:00,
2013-09-20 19:41:00,76.2,53.4,29.93,SW,225,-999.0,-999.0,45,0.00,,SCT250,0.00,VWS V14.01,2013-09-20 23:41:00,
2013-09-20 19:46:00,75.9,53.7,29.93,SW,225,-999.0,-999.0,46,0.00,,SCT250,0.00,VWS V14.01,2013-09-20 23:46:00,
2013-09-20 19:51:00,75.5,52.1,29.93,SW,225,-999.0,-999.0,44,0.00,,SCT250,0.00,VWS V14.01,2013-09-20 23:51:00,
2013-09-20 19:56:00,75.3,51.3,29.93,SW,225,-999.0,-999.0,43,0.00,,SCT250,0.00,VWS V14.01,2013-09-20 23:56:00,
2013-09-20 20:01:00,75.2,50.6,29.93,SW,225,-999.0,-999.0,42,0.00,,SCT250,0.00,VWS V14.01,2013-09-21 00:01:00,
2013-09-20 20:06:00,74.8,48.2,29.93,SW,225,-999.0,-999.0,39,0.00,,SCT250,0.00,VWS V14.01,2013-09-21 00:06:00,
2013-09-20 20:11:00,74.8,47.6,29.93,SW,225,-999.0,-999.0,38,0.00,,SCT250,0.00,VWS V14.01,2013-09-21 00:11:00,
2013-09-20 20:16:00,74.7,47.4,29.93,SW,225,-999.0,-999.0,38,0.00,,SCT250,0.00,VWS V14.01,2013-09-21 00:16:00,
2013-09-20 20:21:00,74.7,45.2,29.94,SW,225,-999.0,-999.0,35,0.00,,SCT250,0.00,VWS V14.01,2013-09-21 00:21:00,
2013-09-20 20:26:00,74.7,45.2,29.94,SW,225,-999.0,-999.0,35,0.00,,SCT250,0.00,VWS V14.01,2013-09-21 00:26:00,
2013-09-20 20:31:00,74.4,43.5,29.94,SW,225,-999.0,-999.0,33,0.00,,SCT250,0.00,VWS V14.01,2013-09-21 00:31:00,
2013-09-20 20:36:00,74.3,43.4,29.94,SW,225,-999.0,-999.0,33,0.00,,SCT250,0.00,VWS V14.01,2013-09-21 00:36:00,
2013-09-20 20:41:00,74.2,43.2,29.94,SW,225,-999.0,-999.0,33,0.00,,SCT250,0.00,VWS V14.01,2013-09-21 00:41:00,
2013-09-20 20:46:00,73.9,42.3,29.94,SW,225,-999.0,-999.0,32,0.00,,SCT250,0.00,VWS V14.01,2013-09-21 00:46:00,
2013-09-20 20:51:00,73.8,42.1,29.94,SW,225,-999.0,-999.0,32,0.00,,SCT250,0.00,VWS V14.01,2013-09-21 00:51:00,
2013-09-20 20:56:00,73.6,41.1,29.94,SW,225,-999.0,-999.0,31,0.00,,SCT250,0.00,VWS V14.01,2013-09-21 00:56:00,
2013-09-20 21:01:00,73.5,38.4,29.94,SSW,202,-999.0,-999.0,28,0.00,,SCT250,0.00,VWS V14.01,2013-09-21 01:01:00,
2013-09-20 21:06:00,73.3,38.2,29.94,SSW,202,-999.0,-999.0,28,0.00,,SCT250,0.00,VWS V14.01,2013-09-21 01:06:00,
2013-09-20 21:11:00,73.1,37.1,29.94,SSW,202,-999.0,-999.0,27,0.00,,SCT250,0.00,VWS V14.01,2013-09-21 01:11:00,
2013-09-20 21:16:00,73.1,38.1,29.94,SSW,202,-999.0,-999.0,28,0.00,,SCT250,0.00,VWS V14.01,2013-09-21 01:16:00,
2013-09-20 21:21:00,72.9,35.0,29.94,SSW,202,-999.0,-999.0,25,0.00,,SCT250,0.00,VWS V14.01,2013-09-21 01:21:00,
2013-09-20 21:26:00,72.7,35.8,29.94,SSW,202,-999.0,-999.0,26,0.00,,SCT250,0.00,VWS V14.01,2013-09-21 01:26:00,
2013-09-20 21:31:00,72.6,33.8,29.94,SSW,202,-999.0,-999.0,24,0.00,,SCT250,0.00,VWS V14.01,2013-09-21 01:31:00,
2013-09-20 21:36:00,72.6,33.8,29.94,SSW,202,-999.0,-999.0,24,0.00,,SCT250,0.00,VWS V14.01,2013-09-21 01:36:00,
2013-09-20 21:41:00,72.6,31.6,29.94,SW,225,-999.0,-999.0,22,0.00,,SCT250,0.00,VWS V14.01,2013-09-21 01:41:00,
2013-09-20 21:46:00,72.7,33.8,29.94,SSW,202,-999.0,-999.0,24,0.00,,SCT250,0.00,VWS V14.01,2013-09-21 01:46:00,
2013-09-20 21:51:00,72.7,34.8,29.94,SSW,202,-999.0,-999.0,25,0.00,,SCT250,0.00,VWS V14.01,2013-09-21 01:51:00,
2013-09-20 21:56:00,73.1,35.2,29.94,WSW,248,-999.0,-999.0,25,0.00,,SCT250,0.00,VWS V14.01,2013-09-21 01:56:00,
2013-09-20 22:01:00,73.3,36.3,29.94,WSW,248,-999.0,-999.0,26,0.00,,SCT250,0.00,VWS V14.01,2013-09-21 02:01:00,
2013-09-20 22:06:00,73.5,38.4,29.94,WSW,248,-999.0,-999.0,28,0.00,,SCT250,0.00,VWS V14.01,2013-09-21 02:06:00,
2013-09-20 22:11:00,73.6,36.6,29.94,WSW,248,-999.0,-999.0,26,0.00,,SCT250,0.00,VWS V14.01,2013-09-21 02:11:00,
2013-09-20 22:16:00,73.8,38.7,29.94,WSW,248,-999.0,-999.0,28,0.00,,SCT250,0.00,VWS V14.01,2013-09-21 02:16:00,
2013-09-20 22:21:00,73.8,40.4,29.94,WSW,248,-999.0,-999.0,30,0.00,,SCT250,0.00,VWS V14.01,2013-09-21 02:21:00,
2013-09-20 22:26:00,73.9,41.4,29.94,WSW,248,-999.0,-999.0,31,0.00,,SCT250,0.00,VWS V14.01,2013-09-21 02:26:00,
2013-09-20 22:31:00,73.9,40.6,29.93,WSW,248,-999.0,-999.0,30,0.00,,SCT250,0.00,VWS V14.01,2013-09-21 02:31:00,
2013-09-20 22:36:00,73.9,42.3,29.94,WSW,248,-999.0,-999.0,32,0.00,,SCT250,0.00,VWS V14.01,2013-09-21 02:36:00,
2013-09-20 22:41:00,73.9,42.3,29.94,WSW,248,-999.0,-999.0,32,0.00,,SCT250,0.00,VWS V14.01,2013-09-21 02:41:00,
2013-09-20 22:46:00,74.2,42.4,29.94,WSW,248,-999.0,-999.0,32,0.00,,SCT250,0.00,VWS V14.01,2013-09-21 02:46:00,
2013-09-20 22:51:00,74.2,43.2,29.93,WSW,248,-999.0,-999.0,33,0.00,,SCT250,0.00,VWS V14.01,2013-09-21 02:51:00,
2013-09-20 22:56:00,74.2,43.2,29.94,WSW,248,-999.0,-999.0,33,0.00,,SCT250,0.00,VWS V14.01,2013-09-21 02:56:00,
2013-09-20 23:01:00,74.2,43.2,29.93,WSW,248,-999.0,-999.0,33,0.00,,SCT250,0.00,VWS V14.01,2013-09-21 03:01:00,
2013-09-20 23:06:00,73.9,43.1,29.93,WSW,248,-999.0,-999.0,33,0.00,,SCT250,0.00,VWS V14.01,2013-09-21 03:06:00,
2013-09-20 23:11:00,73.8,42.9,29.93,WSW,248,-999.0,-999.0,33,0.00,,SCT250,0.00,VWS V14.01,2013-09-21 03:11:00,
2013-09-20 23:16:00,73.8,42.9,29.93,WSW,248,-999.0,-999.0,33,0.00,,SCT250,0.00,VWS V14.01,2013-09-21 03:16:00,
2013-09-20 23:21:00,73.6,41.9,29.94,WSW,248,-999.0,-999.0,32,0.00,,SCT250,0.00,VWS V14.01,2013-09-21 03:21:00,
2013-09-20 23:26:00,73.6,41.1,29.94,WSW,248,-999.0,-999.0,31,0.00,,SCT250,0.00,VWS V14.01,2013-09-21 03:26:00,
2013-09-20 23:31:00,73.6,41.1,29.94,WSW,248,-999.0,-999.0,31,0.00,,SCT250,0.00,VWS V14.01,2013-09-21 03:31:00,
2013-09-20 23:36:00,73.8,41.3,29.94,WSW,248,-999.0,-999.0,31,0.00,,SCT250,0.00,VWS V14.01,2013-09-21 03:36:00,
2013-09-20 23:41:00,73.8,41.3,29.94,WSW,248,-999.0,-999.0,31,0.00,,SCT250,0.00,VWS V14.01,2013-09-21 03:41:00,
2013-09-20 23:46:00,73.6,41.1,29.94,WSW,248,-999.0,-999.0,31,0.00,,SCT250,0.00,VWS V14.01,2013-09-21 03:46:00,
2013-09-20 23:51:00,73.5,40.2,29.93,WSW,248,-999.0,-999.0,30,0.00,,SCT250,0.00,VWS V14.01,2013-09-21 03:51:00,
2013-09-20 23:56:00,73.3,40.0,29.93,WSW,248,-999.0,-999.0,30,0.00,,SCT250,0.00,VWS V14.01,2013-09-21 03:56:00,